Accueil
METAR-TAF:

METAR-TAF

Aéroports :

Palma de Majorque, Espagne

Aéroport de Palma de Majorque

latitude: 39-33N, longitude: 002-44E, altitude: 4 m

Observation

Le bulletin a été fait il y a 27 minutes, à 03:00 UTC
Vent 1 kt de direction variable
Température 6°C
Humidité 100%
Pression 1018 hPa
Visibilité 10 km ou plus
Quelques nuages à une hauteur de 2500 ft

METAR: LEPA 260300Z VRB01KT 9999 FEW025 06/06 Q1018 NOSIG

Heure: 05:27 (03:27 UTC)

Prévision

Le bulletin a été fait il y a 4 heures et 27 minutes, à 23:00 UTC
Prévision valable du 26 à 00 UTC au 26 à 24 UTC
Vent 4 kt de direction variable
Visibilité 10 km ou plus
Nuages épars à une hauteur de 3000 ft
Evoluant progressivement
du 26 à 09 UTC au 26 à 11 UTC
Vent 8 kt de est/sud-est
Evoluant progressivement
du 26 à 18 UTC au 26 à 20 UTC
Vent 7 kt de nord-est

TAF: LEPA 252300Z 2600/2624 VRB04KT 9999 SCT030 TX20/2612Z TN06/2606Z BECMG 2609/2611 11008KT BECMG 2618/2620 05007KT

Observations et prévisions météorologiques de plus de 4000 aéroports (messages METAR et TAF).

Les stations disponibles sont représentées par des disques jaunes et rouges sur la carte.

Passer la souris dessus pour voir le nom de la station.

Cliquer dessus pour voir les observations et prévisions météorologiques.

Pour changer de carte: cliquez sur les boutons verts avec une croix noire pour zoomer, sur le bouton vert avec un tiret pour effectuer un zoom arrière, ou sur les flèches vertes pour les cartes adjacentes.


METAR-TAF: